source: subversion/applications/editors/osm-editor/070505_osm.gpx @ 34560

Last change on this file since 34560 was 664, checked in by nick, 14 years ago

Changed save/load to always 'OSM' mode; changed example GPX files

File size: 41.2 KB
Line 
1<!-- This data is copyright Nick Whitelegg and licenced under the
2     Creative Commons Licence (Attribution/ShareAlike) v2.0. -->
3<gpx version="1.0" creator="Hogweed Software Freemap::Components class" xmlns="http://www.topografix.com/GPX/1/0">
4<wpt lat="51.0039" lon="-1.34838">
5<name>004</name>
6<type>waypoint</type>
7</wpt>
8<wpt lat="50.9826" lon="-1.38328">
9<name>005</name>
10<type>waypoint</type>
11</wpt>
12<wpt lat="51.063" lon="-1.31651">
13<name>CHERITON</name>
14<type>village</type>
15</wpt>
16<wpt lat="51.0441" lon="-1.15132">
17<name>HNT A H</name>
18<type>waypoint</type>
19</wpt>
20<wpt lat="51.0442" lon="-1.14977">
21<name>HNT AMP</name>
22<type>church</type>
23</wpt>
24<wpt lat="51.0466" lon="-1.16116">
25<name>NEW CH</name>
26<type>hamlet</type>
27</wpt>
28<wpt lat="51.0068" lon="-1.34381">
29<name>WINCHESTER</name>
30<type>small town</type>
31</wpt>
32<trk>
33<number>0</number>
34<extensions>
35</extensions>
36<trkseg>
37<trkpt lat="51.0338" lon="-1.10908">
38<time>2005-05-07T13:44:01Z</time>
39</trkpt>
40<trkpt lat="51.0349" lon="-1.10874">
41<time>2005-05-07T13:44:42Z</time>
42</trkpt>
43<trkpt lat="51.0351" lon="-1.10889">
44<time>2005-05-07T13:45:09Z</time>
45</trkpt>
46<trkpt lat="51.0355" lon="-1.10949">
47<time>2005-05-07T13:45:46Z</time>
48</trkpt>
49<trkpt lat="51.0357" lon="-1.11043">
50<time>2005-05-07T13:46:26Z</time>
51</trkpt>
52<trkpt lat="51.0358" lon="-1.11069">
53<time>2005-05-07T13:46:40Z</time>
54</trkpt>
55<trkpt lat="51.036" lon="-1.11174">
56<time>2005-05-07T13:47:31Z</time>
57</trkpt>
58<trkpt lat="51.0358" lon="-1.11224">
59<time>2005-05-07T13:47:45Z</time>
60</trkpt>
61<trkpt lat="51.0358" lon="-1.11232">
62<time>2005-05-07T13:47:49Z</time>
63</trkpt>
64<trkpt lat="51.036" lon="-1.1126">
65<time>2005-05-07T13:48:04Z</time>
66</trkpt>
67<trkpt lat="51.036" lon="-1.1131">
68<time>2005-05-07T13:48:33Z</time>
69</trkpt>
70<trkpt lat="51.0362" lon="-1.1135">
71<time>2005-05-07T13:48:56Z</time>
72</trkpt>
73<trkpt lat="51.0363" lon="-1.11385">
74<time>2005-05-07T13:49:17Z</time>
75</trkpt>
76<trkpt lat="51.0365" lon="-1.11385">
77<time>2005-05-07T13:49:41Z</time>
78</trkpt>
79<trkpt lat="51.0365" lon="-1.11391">
80<time>2005-05-07T13:50:03Z</time>
81</trkpt>
82<trkpt lat="51.0365" lon="-1.11421">
83<time>2005-05-07T13:51:35Z</time>
84</trkpt>
85<trkpt lat="51.0367" lon="-1.1146">
86<time>2005-05-07T13:51:56Z</time>
87</trkpt>
88<trkpt lat="51.0368" lon="-1.11488">
89<time>2005-05-07T13:52:15Z</time>
90</trkpt>
91<trkpt lat="51.0369" lon="-1.11494">
92<time>2005-05-07T13:52:25Z</time>
93</trkpt>
94<trkpt lat="51.0369" lon="-1.11501">
95<time>2005-05-07T13:53:32Z</time>
96</trkpt>
97<trkpt lat="51.037" lon="-1.11524">
98<time>2005-05-07T13:54:02Z</time>
99</trkpt>
100<trkpt lat="51.0372" lon="-1.11569">
101<time>2005-05-07T13:54:23Z</time>
102</trkpt>
103<trkpt lat="51.0373" lon="-1.1161">
104<time>2005-05-07T13:54:43Z</time>
105</trkpt>
106<trkpt lat="51.0375" lon="-1.11651">
107<time>2005-05-07T13:55:04Z</time>
108</trkpt>
109<trkpt lat="51.0377" lon="-1.11685">
110<time>2005-05-07T13:55:22Z</time>
111</trkpt>
112<trkpt lat="51.0378" lon="-1.11722">
113<time>2005-05-07T13:55:41Z</time>
114</trkpt>
115<trkpt lat="51.038" lon="-1.11754">
116<time>2005-05-07T13:55:59Z</time>
117</trkpt>
118<trkpt lat="51.0381" lon="-1.11782">
119<time>2005-05-07T13:56:19Z</time>
120</trkpt>
121<trkpt lat="51.0381" lon="-1.11782">
122<time>2005-05-07T13:56:43Z</time>
123</trkpt>
124<trkpt lat="51.0381" lon="-1.1179">
125<time>2005-05-07T13:57:02Z</time>
126</trkpt>
127<trkpt lat="51.0382" lon="-1.11801">
128<time>2005-05-07T13:57:29Z</time>
129</trkpt>
130<trkpt lat="51.0383" lon="-1.11825">
131<time>2005-05-07T13:57:54Z</time>
132</trkpt>
133<trkpt lat="51.0384" lon="-1.11848">
134<time>2005-05-07T13:58:14Z</time>
135</trkpt>
136<trkpt lat="51.0384" lon="-1.1187">
137<time>2005-05-07T13:58:51Z</time>
138</trkpt>
139<trkpt lat="51.0384" lon="-1.11874">
140<time>2005-05-07T13:59:20Z</time>
141</trkpt>
142<trkpt lat="51.0385" lon="-1.11867">
143<time>2005-05-07T13:59:35Z</time>
144</trkpt>
145<trkpt lat="51.039" lon="-1.11837">
146<time>2005-05-07T14:00:06Z</time>
147</trkpt>
148<trkpt lat="51.0393" lon="-1.11795">
149<time>2005-05-07T14:00:31Z</time>
150</trkpt>
151<trkpt lat="51.0393" lon="-1.11777">
152<time>2005-05-07T14:00:54Z</time>
153</trkpt>
154<trkpt lat="51.0392" lon="-1.1179">
155<time>2005-05-07T14:01:22Z</time>
156</trkpt>
157<trkpt lat="51.039" lon="-1.11842">
158<time>2005-05-07T14:01:52Z</time>
159</trkpt>
160<trkpt lat="51.0385" lon="-1.11865">
161<time>2005-05-07T14:02:22Z</time>
162</trkpt>
163<trkpt lat="51.0383" lon="-1.11882">
164<time>2005-05-07T14:02:44Z</time>
165</trkpt>
166<trkpt lat="51.0384" lon="-1.11904">
167<time>2005-05-07T14:03:01Z</time>
168</trkpt>
169<trkpt lat="51.0384" lon="-1.11915">
170<time>2005-05-07T14:03:14Z</time>
171</trkpt>
172<trkpt lat="51.0385" lon="-1.11936">
173<time>2005-05-07T14:03:33Z</time>
174</trkpt>
175<trkpt lat="51.0387" lon="-1.11973">
176<time>2005-05-07T14:03:55Z</time>
177</trkpt>
178<trkpt lat="51.0388" lon="-1.12007">
179<time>2005-05-07T14:04:14Z</time>
180</trkpt>
181<trkpt lat="51.039" lon="-1.12035">
182<time>2005-05-07T14:04:33Z</time>
183</trkpt>
184<trkpt lat="51.0391" lon="-1.12073">
185<time>2005-05-07T14:04:57Z</time>
186</trkpt>
187<trkpt lat="51.0393" lon="-1.1211">
188<time>2005-05-07T14:05:21Z</time>
189</trkpt>
190<trkpt lat="51.0395" lon="-1.12146">
191<time>2005-05-07T14:05:48Z</time>
192</trkpt>
193<trkpt lat="51.0397" lon="-1.12159">
194<time>2005-05-07T14:06:06Z</time>
195</trkpt>
196<trkpt lat="51.0397" lon="-1.12161">
197<time>2005-05-07T14:06:26Z</time>
198</trkpt>
199<trkpt lat="51.0398" lon="-1.12166">
200<time>2005-05-07T14:06:34Z</time>
201</trkpt>
202<trkpt lat="51.04" lon="-1.12185">
203<time>2005-05-07T14:06:54Z</time>
204</trkpt>
205<trkpt lat="51.0403" lon="-1.122">
206<time>2005-05-07T14:07:13Z</time>
207</trkpt>
208<trkpt lat="51.0403" lon="-1.12206">
209<time>2005-05-07T14:07:30Z</time>
210</trkpt>
211<trkpt lat="51.0404" lon="-1.12206">
212<time>2005-05-07T14:07:46Z</time>
213</trkpt>
214<trkpt lat="51.0404" lon="-1.12211">
215<time>2005-05-07T14:07:56Z</time>
216</trkpt>
217<trkpt lat="51.0405" lon="-1.12224">
218<time>2005-05-07T14:08:13Z</time>
219</trkpt>
220<trkpt lat="51.0405" lon="-1.12243">
221<time>2005-05-07T14:08:56Z</time>
222</trkpt>
223<trkpt lat="51.0406" lon="-1.1226">
224<time>2005-05-07T14:09:11Z</time>
225</trkpt>
226<trkpt lat="51.0407" lon="-1.12279">
227<time>2005-05-07T14:09:39Z</time>
228</trkpt>
229<trkpt lat="51.0407" lon="-1.12297">
230<time>2005-05-07T14:09:51Z</time>
231</trkpt>
232<trkpt lat="51.0408" lon="-1.12325">
233<time>2005-05-07T14:10:10Z</time>
234</trkpt>
235<trkpt lat="51.0409" lon="-1.12342">
236<time>2005-05-07T14:10:26Z</time>
237</trkpt>
238<trkpt lat="51.0409" lon="-1.12357">
239<time>2005-05-07T14:10:37Z</time>
240</trkpt>
241<trkpt lat="51.041" lon="-1.12374">
242<time>2005-05-07T14:10:53Z</time>
243</trkpt>
244<trkpt lat="51.0412" lon="-1.1241">
245<time>2005-05-07T14:11:15Z</time>
246</trkpt>
247<trkpt lat="51.0412" lon="-1.12415">
248<time>2005-05-07T14:11:29Z</time>
249</trkpt>
250<trkpt lat="51.0412" lon="-1.12419">
251<time>2005-05-07T14:11:56Z</time>
252</trkpt>
253<trkpt lat="51.0412" lon="-1.12428">
254<time>2005-05-07T14:12:13Z</time>
255</trkpt>
256<trkpt lat="51.0412" lon="-1.12432">
257<time>2005-05-07T14:12:19Z</time>
258</trkpt>
259<trkpt lat="51.0412" lon="-1.12438">
260<time>2005-05-07T14:12:34Z</time>
261</trkpt>
262<trkpt lat="51.0412" lon="-1.1244">
263<time>2005-05-07T14:13:05Z</time>
264</trkpt>
265<trkpt lat="51.0412" lon="-1.12445">
266<time>2005-05-07T14:13:09Z</time>
267</trkpt>
268<trkpt lat="51.0413" lon="-1.12475">
269<time>2005-05-07T14:13:31Z</time>
270</trkpt>
271<trkpt lat="51.0414" lon="-1.12503">
272<time>2005-05-07T14:13:51Z</time>
273</trkpt>
274<trkpt lat="51.0415" lon="-1.12524">
275<time>2005-05-07T14:14:08Z</time>
276</trkpt>
277<trkpt lat="51.0415" lon="-1.12528">
278<time>2005-05-07T14:14:16Z</time>
279</trkpt>
280<trkpt lat="51.0416" lon="-1.12526">
281<time>2005-05-07T14:14:20Z</time>
282</trkpt>
283<trkpt lat="51.0416" lon="-1.12524">
284<time>2005-05-07T14:14:23Z</time>
285</trkpt>
286<trkpt lat="51.0416" lon="-1.12526">
287<time>2005-05-07T14:14:25Z</time>
288</trkpt>
289<trkpt lat="51.0417" lon="-1.12535">
290<time>2005-05-07T14:14:41Z</time>
291</trkpt>
292<trkpt lat="51.0417" lon="-1.12546">
293<time>2005-05-07T14:14:55Z</time>
294</trkpt>
295<trkpt lat="51.0417" lon="-1.1255">
296<time>2005-05-07T14:15:03Z</time>
297</trkpt>
298<trkpt lat="51.0414" lon="-1.12571">
299<time>2005-05-07T14:15:24Z</time>
300</trkpt>
301<trkpt lat="51.0412" lon="-1.12597">
302<time>2005-05-07T14:15:45Z</time>
303</trkpt>
304<trkpt lat="51.041" lon="-1.12625">
305<time>2005-05-07T14:16:04Z</time>
306</trkpt>
307<trkpt lat="51.0409" lon="-1.12644">
308<time>2005-05-07T14:16:21Z</time>
309</trkpt>
310<trkpt lat="51.0408" lon="-1.12644">
311<time>2005-05-07T14:16:27Z</time>
312</trkpt>
313<trkpt lat="51.0405" lon="-1.1267">
314<time>2005-05-07T14:16:49Z</time>
315</trkpt>
316<trkpt lat="51.0403" lon="-1.12691">
317<time>2005-05-07T14:17:08Z</time>
318</trkpt>
319<trkpt lat="51.04" lon="-1.12704">
320<time>2005-05-07T14:17:29Z</time>
321</trkpt>
322<trkpt lat="51.0397" lon="-1.12709">
323<time>2005-05-07T14:17:51Z</time>
324</trkpt>
325<trkpt lat="51.0395" lon="-1.12721">
326<time>2005-05-07T14:18:09Z</time>
327</trkpt>
328<trkpt lat="51.0396" lon="-1.12728">
329<time>2005-05-07T14:18:36Z</time>
330</trkpt>
331<trkpt lat="51.0396" lon="-1.1273">
332<time>2005-05-07T14:18:46Z</time>
333</trkpt>
334<trkpt lat="51.0396" lon="-1.1276">
335<time>2005-05-07T14:19:05Z</time>
336</trkpt>
337<trkpt lat="51.0397" lon="-1.12786">
338<time>2005-05-07T14:19:28Z</time>
339</trkpt>
340<trkpt lat="51.0399" lon="-1.12839">
341<time>2005-05-07T14:19:55Z</time>
342</trkpt>
343<trkpt lat="51.0399" lon="-1.12842">
344<time>2005-05-07T14:19:56Z</time>
345</trkpt>
346<trkpt lat="51.0399" lon="-1.12848">
347<time>2005-05-07T14:20:00Z</time>
348</trkpt>
349<trkpt lat="51.0399" lon="-1.12859">
350<time>2005-05-07T14:20:19Z</time>
351</trkpt>
352<trkpt lat="51.0399" lon="-1.12863">
353<time>2005-05-07T14:30:32Z</time>
354</trkpt>
355<trkpt lat="51.04" lon="-1.12878">
356<time>2005-05-07T14:30:54Z</time>
357</trkpt>
358<trkpt lat="51.0402" lon="-1.1291">
359<time>2005-05-07T14:31:14Z</time>
360</trkpt>
361<trkpt lat="51.0403" lon="-1.12945">
362<time>2005-05-07T14:31:35Z</time>
363</trkpt>
364<trkpt lat="51.0405" lon="-1.12966">
365<time>2005-05-07T14:31:56Z</time>
366</trkpt>
367<trkpt lat="51.0407" lon="-1.12985">
368<time>2005-05-07T14:32:21Z</time>
369</trkpt>
370<trkpt lat="51.0408" lon="-1.13003">
371<time>2005-05-07T14:32:39Z</time>
372</trkpt>
373<trkpt lat="51.041" lon="-1.13028">
374<time>2005-05-07T14:33:00Z</time>
375</trkpt>
376<trkpt lat="51.0413" lon="-1.13063">
377<time>2005-05-07T14:33:24Z</time>
378</trkpt>
379<trkpt lat="51.0415" lon="-1.13088">
380<time>2005-05-07T14:33:48Z</time>
381</trkpt>
382<trkpt lat="51.0415" lon="-1.13088">
383<time>2005-05-07T14:33:49Z</time>
384</trkpt>
385<trkpt lat="51.0414" lon="-1.13116">
386<time>2005-05-07T14:34:37Z</time>
387</trkpt>
388<trkpt lat="51.0413" lon="-1.13133">
389<time>2005-05-07T14:35:10Z</time>
390</trkpt>
391<trkpt lat="51.0412" lon="-1.13155">
392<time>2005-05-07T14:35:22Z</time>
393</trkpt>
394<trkpt lat="51.0412" lon="-1.13142">
395<time>2005-05-07T14:35:49Z</time>
396</trkpt>
397<trkpt lat="51.0413" lon="-1.13108">
398<time>2005-05-07T14:36:47Z</time>
399</trkpt>
400<trkpt lat="51.0414" lon="-1.13108">
401<time>2005-05-07T14:37:20Z</time>
402</trkpt>
403<trkpt lat="51.0414" lon="-1.13108">
404<time>2005-05-07T14:37:31Z</time>
405</trkpt>
406<trkpt lat="51.0415" lon="-1.13114">
407<time>2005-05-07T14:37:36Z</time>
408</trkpt>
409<trkpt lat="51.0417" lon="-1.13157">
410<time>2005-05-07T14:38:00Z</time>
411</trkpt>
412<trkpt lat="51.0419" lon="-1.13181">
413<time>2005-05-07T14:38:17Z</time>
414</trkpt>
415<trkpt lat="51.0421" lon="-1.13213">
416<time>2005-05-07T14:38:36Z</time>
417</trkpt>
418<trkpt lat="51.0422" lon="-1.13247">
419<time>2005-05-07T14:38:49Z</time>
420</trkpt>
421<trkpt lat="51.0422" lon="-1.13282">
422<time>2005-05-07T14:39:02Z</time>
423</trkpt>
424<trkpt lat="51.0422" lon="-1.13288">
425<time>2005-05-07T14:39:06Z</time>
426</trkpt>
427<trkpt lat="51.0422" lon="-1.13316">
428<time>2005-05-07T14:39:17Z</time>
429</trkpt>
430<trkpt lat="51.0423" lon="-1.13374">
431<time>2005-05-07T14:39:36Z</time>
432</trkpt>
433<trkpt lat="51.0426" lon="-1.13402">
434<time>2005-05-07T14:40:03Z</time>
435</trkpt>
436<trkpt lat="51.0432" lon="-1.13453">
437<time>2005-05-07T14:40:47Z</time>
438</trkpt>
439<trkpt lat="51.0434" lon="-1.13466">
440<time>2005-05-07T14:41:01Z</time>
441</trkpt>
442<trkpt lat="51.0434" lon="-1.1347">
443<time>2005-05-07T14:41:06Z</time>
444</trkpt>
445<trkpt lat="51.0435" lon="-1.13464">
446<time>2005-05-07T14:41:19Z</time>
447</trkpt>
448<trkpt lat="51.0437" lon="-1.13505">
449<time>2005-05-07T14:41:41Z</time>
450</trkpt>
451<trkpt lat="51.0438" lon="-1.13518">
452<time>2005-05-07T14:41:51Z</time>
453</trkpt>
454<trkpt lat="51.044" lon="-1.13543">
455<time>2005-05-07T14:42:11Z</time>
456</trkpt>
457<trkpt lat="51.044" lon="-1.13543">
458<time>2005-05-07T14:42:14Z</time>
459</trkpt>
460<trkpt lat="51.0441" lon="-1.13569">
461<time>2005-05-07T14:42:30Z</time>
462</trkpt>
463<trkpt lat="51.0442" lon="-1.13603">
464<time>2005-05-07T14:42:50Z</time>
465</trkpt>
466<trkpt lat="51.0443" lon="-1.13621">
467<time>2005-05-07T14:42:57Z</time>
468</trkpt>
469<trkpt lat="51.0444" lon="-1.13661">
470<time>2005-05-07T14:43:20Z</time>
471</trkpt>
472<trkpt lat="51.0444" lon="-1.13711">
473<time>2005-05-07T14:43:43Z</time>
474</trkpt>
475<trkpt lat="51.0444" lon="-1.13719">
476<time>2005-05-07T14:43:57Z</time>
477</trkpt>
478<trkpt lat="51.0445" lon="-1.13762">
479<time>2005-05-07T14:44:17Z</time>
480</trkpt>
481<trkpt lat="51.0446" lon="-1.13771">
482<time>2005-05-07T14:44:35Z</time>
483</trkpt>
484<trkpt lat="51.0446" lon="-1.13801">
485<time>2005-05-07T14:45:41Z</time>
486</trkpt>
487<trkpt lat="51.0446" lon="-1.13805">
488<time>2005-05-07T14:45:43Z</time>
489</trkpt>
490<trkpt lat="51.0446" lon="-1.13818">
491<time>2005-05-07T14:45:50Z</time>
492</trkpt>
493<trkpt lat="51.0447" lon="-1.13859">
494<time>2005-05-07T14:46:08Z</time>
495</trkpt>
496<trkpt lat="51.0447" lon="-1.13902">
497<time>2005-05-07T14:46:32Z</time>
498</trkpt>
499<trkpt lat="51.0448" lon="-1.13919">
500<time>2005-05-07T14:46:50Z</time>
501</trkpt>
502<trkpt lat="51.0447" lon="-1.13955">
503<time>2005-05-07T14:47:08Z</time>
504</trkpt>
505<trkpt lat="51.0448" lon="-1.1396">
506<time>2005-05-07T14:47:22Z</time>
507</trkpt>
508<trkpt lat="51.0448" lon="-1.13985">
509<time>2005-05-07T14:47:44Z</time>
510</trkpt>
511<trkpt lat="51.0449" lon="-1.14054">
512<time>2005-05-07T14:48:18Z</time>
513</trkpt>
514<trkpt lat="51.0449" lon="-1.14073">
515<time>2005-05-07T14:48:34Z</time>
516</trkpt>
517<trkpt lat="51.0449" lon="-1.14101">
518<time>2005-05-07T14:48:50Z</time>
519</trkpt>
520<trkpt lat="51.0449" lon="-1.14116">
521<time>2005-05-07T14:49:07Z</time>
522</trkpt>
523<trkpt lat="51.045" lon="-1.14148">
524<time>2005-05-07T14:49:33Z</time>
525</trkpt>
526<trkpt lat="51.045" lon="-1.14168">
527<time>2005-05-07T14:49:43Z</time>
528</trkpt>
529<trkpt lat="51.045" lon="-1.14185">
530<time>2005-05-07T14:49:55Z</time>
531</trkpt>
532<trkpt lat="51.045" lon="-1.14202">
533<time>2005-05-07T14:50:10Z</time>
534</trkpt>
535<trkpt lat="51.045" lon="-1.14232">
536<time>2005-05-07T14:50:25Z</time>
537</trkpt>
538<trkpt lat="51.045" lon="-1.14245">
539<time>2005-05-07T14:50:41Z</time>
540</trkpt>
541<trkpt lat="51.045" lon="-1.14249">
542<time>2005-05-07T14:53:44Z</time>
543</trkpt>
544<trkpt lat="51.045" lon="-1.14279">
545<time>2005-05-07T14:53:59Z</time>
546</trkpt>
547<trkpt lat="51.045" lon="-1.14324">
548<time>2005-05-07T14:54:20Z</time>
549</trkpt>
550<trkpt lat="51.045" lon="-1.14363">
551<time>2005-05-07T14:54:39Z</time>
552</trkpt>
553<trkpt lat="51.045" lon="-1.14402">
554<time>2005-05-07T14:55:01Z</time>
555</trkpt>
556<trkpt lat="51.045" lon="-1.14436">
557<time>2005-05-07T14:55:54Z</time>
558</trkpt>
559<trkpt lat="51.0449" lon="-1.14496">
560<time>2005-05-07T14:56:18Z</time>
561</trkpt>
562<trkpt lat="51.0449" lon="-1.14533">
563<time>2005-05-07T14:56:32Z</time>
564</trkpt>
565<trkpt lat="51.0448" lon="-1.14578">
566<time>2005-05-07T14:56:49Z</time>
567</trkpt>
568<trkpt lat="51.0447" lon="-1.14616">
569<time>2005-05-07T14:57:11Z</time>
570</trkpt>
571<trkpt lat="51.0447" lon="-1.14616">
572<time>2005-05-07T14:57:12Z</time>
573</trkpt>
574<trkpt lat="51.0447" lon="-1.1462">
575<time>2005-05-07T14:57:22Z</time>
576</trkpt>
577<trkpt lat="51.0445" lon="-1.14625">
578<time>2005-05-07T14:57:40Z</time>
579</trkpt>
580<trkpt lat="51.0445" lon="-1.14625">
581<time>2005-05-07T14:57:45Z</time>
582</trkpt>
583<trkpt lat="51.0444" lon="-1.14681">
584<time>2005-05-07T14:58:14Z</time>
585</trkpt>
586<trkpt lat="51.0443" lon="-1.14734">
587<time>2005-05-07T14:58:35Z</time>
588</trkpt>
589<trkpt lat="51.0443" lon="-1.14777">
590<time>2005-05-07T14:58:54Z</time>
591</trkpt>
592<trkpt lat="51.0443" lon="-1.14811">
593<time>2005-05-07T14:59:11Z</time>
594</trkpt>
595<trkpt lat="51.0443" lon="-1.14865">
596<time>2005-05-07T14:59:36Z</time>
597</trkpt>
598<trkpt lat="51.0442" lon="-1.14904">
599<time>2005-05-07T15:00:03Z</time>
600</trkpt>
601<trkpt lat="51.0442" lon="-1.14906">
602<time>2005-05-07T15:00:05Z</time>
603</trkpt>
604<trkpt lat="51.0442" lon="-1.14923">
605<time>2005-05-07T15:00:30Z</time>
606</trkpt>
607<trkpt lat="51.0442" lon="-1.14914">
608<time>2005-05-07T15:00:42Z</time>
609</trkpt>
610<trkpt lat="51.0441" lon="-1.14895">
611<time>2005-05-07T15:01:02Z</time>
612</trkpt>
613<trkpt lat="51.0441" lon="-1.14887">
614<time>2005-05-07T15:01:12Z</time>
615</trkpt>
616<trkpt lat="51.0437" lon="-1.14872">
617<time>2005-05-07T15:01:43Z</time>
618</trkpt>
619<trkpt lat="51.0433" lon="-1.14893">
620<time>2005-05-07T15:02:07Z</time>
621</trkpt>
622<trkpt lat="51.0432" lon="-1.14914">
623<time>2005-05-07T15:02:29Z</time>
624</trkpt>
625<trkpt lat="51.0429" lon="-1.14927">
626<time>2005-05-07T15:02:48Z</time>
627</trkpt>
628<trkpt lat="51.0426" lon="-1.14936">
629<time>2005-05-07T15:03:10Z</time>
630</trkpt>
631<trkpt lat="51.0424" lon="-1.14942">
632<time>2005-05-07T15:03:28Z</time>
633</trkpt>
634<trkpt lat="51.0421" lon="-1.14949">
635<time>2005-05-07T15:03:50Z</time>
636</trkpt>
637<trkpt lat="51.0418" lon="-1.14955">
638<time>2005-05-07T15:04:08Z</time>
639</trkpt>
640<trkpt lat="51.0414" lon="-1.14966">
641<time>2005-05-07T15:04:34Z</time>
642</trkpt>
643<trkpt lat="51.0411" lon="-1.14985">
644<time>2005-05-07T15:05:02Z</time>
645</trkpt>
646<trkpt lat="51.041" lon="-1.14996">
647<time>2005-05-07T15:05:23Z</time>
648</trkpt>
649<trkpt lat="51.0411" lon="-1.14998">
650<time>2005-05-07T15:05:54Z</time>
651</trkpt>
652<trkpt lat="51.0412" lon="-1.15043">
653<time>2005-05-07T15:06:14Z</time>
654</trkpt>
655<trkpt lat="51.0413" lon="-1.15093">
656<time>2005-05-07T15:06:34Z</time>
657</trkpt>
658<trkpt lat="51.0413" lon="-1.15142">
659<time>2005-05-07T15:06:57Z</time>
660</trkpt>
661<trkpt lat="51.0414" lon="-1.15153">
662<time>2005-05-07T15:07:14Z</time>
663</trkpt>
664<trkpt lat="51.0414" lon="-1.15176">
665<time>2005-05-07T15:07:36Z</time>
666</trkpt>
667<trkpt lat="51.0414" lon="-1.15183">
668<time>2005-05-07T15:07:50Z</time>
669</trkpt>
670<trkpt lat="51.0414" lon="-1.15198">
671<time>2005-05-07T15:08:24Z</time>
672</trkpt>
673<trkpt lat="51.0415" lon="-1.15245">
674<time>2005-05-07T15:08:45Z</time>
675</trkpt>
676<trkpt lat="51.0416" lon="-1.15284">
677<time>2005-05-07T15:09:03Z</time>
678</trkpt>
679<trkpt lat="51.0417" lon="-1.15337">
680<time>2005-05-07T15:09:28Z</time>
681</trkpt>
682<trkpt lat="51.0417" lon="-1.1538">
683<time>2005-05-07T15:09:48Z</time>
684</trkpt>
685<trkpt lat="51.0417" lon="-1.15466">
686<time>2005-05-07T15:10:27Z</time>
687</trkpt>
688<trkpt lat="51.0418" lon="-1.1552">
689<time>2005-05-07T15:10:50Z</time>
690</trkpt>
691<trkpt lat="51.0418" lon="-1.15577">
692<time>2005-05-07T15:11:15Z</time>
693</trkpt>
694<trkpt lat="51.0418" lon="-1.15625">
695<time>2005-05-07T15:11:37Z</time>
696</trkpt>
697<trkpt lat="51.0419" lon="-1.15674">
698<time>2005-05-07T15:11:59Z</time>
699</trkpt>
700<trkpt lat="51.0419" lon="-1.15726">
701<time>2005-05-07T15:12:21Z</time>
702</trkpt>
703<trkpt lat="51.0419" lon="-1.15781">
704<time>2005-05-07T15:12:44Z</time>
705</trkpt>
706<trkpt lat="51.0419" lon="-1.15818">
707<time>2005-05-07T15:13:02Z</time>
708</trkpt>
709<trkpt lat="51.0419" lon="-1.15878">
710<time>2005-05-07T15:13:29Z</time>
711</trkpt>
712<trkpt lat="51.0419" lon="-1.15944">
713<time>2005-05-07T15:13:55Z</time>
714</trkpt>
715<trkpt lat="51.0419" lon="-1.15994">
716<time>2005-05-07T15:14:16Z</time>
717</trkpt>
718<trkpt lat="51.042" lon="-1.16043">
719<time>2005-05-07T15:14:37Z</time>
720</trkpt>
721<trkpt lat="51.0429" lon="-1.16092">
722<time>2005-05-07T15:15:24Z</time>
723</trkpt>
724<trkpt lat="51.0443" lon="-1.16133">
725<time>2005-05-07T15:15:43Z</time>
726</trkpt>
727<trkpt lat="51.0452" lon="-1.16107">
728<time>2005-05-07T15:16:02Z</time>
729</trkpt>
730<trkpt lat="51.045" lon="-1.16116">
731<time>2005-05-07T15:16:06Z</time>
732</trkpt>
733<trkpt lat="51.0456" lon="-1.16146">
734<time>2005-05-07T15:16:26Z</time>
735</trkpt>
736<trkpt lat="51.0458" lon="-1.16148">
737<time>2005-05-07T15:16:32Z</time>
738</trkpt>
739<trkpt lat="51.046" lon="-1.16138">
740<time>2005-05-07T15:16:39Z</time>
741</trkpt>
742<trkpt lat="51.0464" lon="-1.16116">
743<time>2005-05-07T15:16:53Z</time>
744</trkpt>
745<trkpt lat="51.0466" lon="-1.16116">
746<time>2005-05-07T15:17:09Z</time>
747</trkpt>
748<trkpt lat="51.0467" lon="-1.1611">
749<time>2005-05-07T15:17:28Z</time>
750</trkpt>
751<trkpt lat="51.0469" lon="-1.16107">
752<time>2005-05-07T15:17:59Z</time>
753</trkpt>
754<trkpt lat="51.047" lon="-1.16105">
755<time>2005-05-07T15:18:57Z</time>
756</trkpt>
757<trkpt lat="51.047" lon="-1.1611">
758<time>2005-05-07T15:19:04Z</time>
759</trkpt>
760<trkpt lat="51.047" lon="-1.16114">
761<time>2005-05-07T15:19:20Z</time>
762</trkpt>
763<trkpt lat="51.047" lon="-1.16114">
764<time>2005-05-07T15:19:57Z</time>
765</trkpt>
766<trkpt lat="51.047" lon="-1.16118">
767<time>2005-05-07T15:21:32Z</time>
768</trkpt>
769<trkpt lat="51.047" lon="-1.16105">
770<time>2005-05-07T15:23:57Z</time>
771</trkpt>
772<trkpt lat="51.047" lon="-1.16097">
773<time>2005-05-07T15:24:29Z</time>
774</trkpt>
775<trkpt lat="51.047" lon="-1.16112">
776<time>2005-05-07T15:25:02Z</time>
777</trkpt>
778<trkpt lat="51.047" lon="-1.16112">
779<time>2005-05-07T15:26:25Z</time>
780</trkpt>
781<trkpt lat="51.047" lon="-1.16118">
782<time>2005-05-07T15:28:54Z</time>
783</trkpt>
784<trkpt lat="51.0471" lon="-1.16099">
785<time>2005-05-07T15:37:56Z</time>
786</trkpt>
787<trkpt lat="51.0469" lon="-1.16077">
788<time>2005-05-07T15:38:14Z</time>
789</trkpt>
790<trkpt lat="51.0474" lon="-1.1611">
791<time>2005-05-07T15:39:09Z</time>
792</trkpt>
793<trkpt lat="51.0481" lon="-1.16092">
794<time>2005-05-07T15:39:20Z</time>
795</trkpt>
796<trkpt lat="51.0483" lon="-1.16092">
797<time>2005-05-07T15:39:23Z</time>
798</trkpt>
799<trkpt lat="51.0498" lon="-1.1614">
800<time>2005-05-07T15:39:41Z</time>
801</trkpt>
802<trkpt lat="51.05" lon="-1.16195">
803<time>2005-05-07T15:39:49Z</time>
804</trkpt>
805<trkpt lat="51.05" lon="-1.1621">
806<time>2005-05-07T15:39:51Z</time>
807</trkpt>
808<trkpt lat="51.0501" lon="-1.16256">
809<time>2005-05-07T15:39:58Z</time>
810</trkpt>
811<trkpt lat="51.0506" lon="-1.16395">
812<time>2005-05-07T15:40:08Z</time>
813</trkpt>
814<trkpt lat="51.0507" lon="-1.16406">
815<time>2005-05-07T15:40:15Z</time>
816</trkpt>
817<trkpt lat="51.0506" lon="-1.16434">
818<time>2005-05-07T15:40:26Z</time>
819</trkpt>
820<trkpt lat="51.051" lon="-1.16517">
821<time>2005-05-07T15:40:35Z</time>
822</trkpt>
823<trkpt lat="51.0512" lon="-1.1655">
824<time>2005-05-07T15:40:38Z</time>
825</trkpt>
826<trkpt lat="51.0513" lon="-1.16741">
827<time>2005-05-07T15:40:52Z</time>
828</trkpt>
829<trkpt lat="51.0518" lon="-1.16833">
830<time>2005-05-07T15:41:05Z</time>
831</trkpt>
832<trkpt lat="51.0529" lon="-1.16983">
833<time>2005-05-07T15:41:28Z</time>
834</trkpt>
835<trkpt lat="51.0535" lon="-1.17015">
836<time>2005-05-07T15:41:36Z</time>
837</trkpt>
838<trkpt lat="51.0537" lon="-1.17032">
839<time>2005-05-07T15:41:41Z</time>
840</trkpt>
841<trkpt lat="51.0539" lon="-1.17039">
842<time>2005-05-07T15:41:44Z</time>
843</trkpt>
844<trkpt lat="51.0542" lon="-1.17075">
845<time>2005-05-07T15:41:49Z</time>
846</trkpt>
847<trkpt lat="51.0546" lon="-1.17097">
848<time>2005-05-07T15:41:54Z</time>
849</trkpt>
850<trkpt lat="51.0568" lon="-1.17133">
851<time>2005-05-07T15:42:21Z</time>
852</trkpt>
853<trkpt lat="51.0571" lon="-1.17088">
854<time>2005-05-07T15:42:31Z</time>
855</trkpt>
856<trkpt lat="51.0572" lon="-1.17062">
857<time>2005-05-07T15:42:35Z</time>
858</trkpt>
859<trkpt lat="51.0575" lon="-1.17041">
860<time>2005-05-07T15:42:41Z</time>
861</trkpt>
862<trkpt lat="51.0576" lon="-1.1703">
863<time>2005-05-07T15:42:43Z</time>
864</trkpt>
865<trkpt lat="51.0576" lon="-1.17007">
866<time>2005-05-07T15:42:46Z</time>
867</trkpt>
868<trkpt lat="51.0576" lon="-1.16979">
869<time>2005-05-07T15:42:49Z</time>
870</trkpt>
871<trkpt lat="51.0576" lon="-1.16955">
872<time>2005-05-07T15:42:52Z</time>
873</trkpt>
874<trkpt lat="51.0578" lon="-1.16931">
875<time>2005-05-07T15:42:57Z</time>
876</trkpt>
877<trkpt lat="51.058" lon="-1.16949">
878<time>2005-05-07T15:43:03Z</time>
879</trkpt>
880<trkpt lat="51.0582" lon="-1.16989">
881<time>2005-05-07T15:43:08Z</time>
882</trkpt>
883<trkpt lat="51.0593" lon="-1.17105">
884<time>2005-05-07T15:43:22Z</time>
885</trkpt>
886<trkpt lat="51.0613" lon="-1.17217">
887<time>2005-05-07T15:43:37Z</time>
888</trkpt>
889<trkpt lat="51.0635" lon="-1.1732">
890<time>2005-05-07T15:43:51Z</time>
891</trkpt>
892<trkpt lat="51.0643" lon="-1.17348">
893<time>2005-05-07T15:43:56Z</time>
894</trkpt>
895<trkpt lat="51.0654" lon="-1.17333">
896<time>2005-05-07T15:44:09Z</time>
897</trkpt>
898<trkpt lat="51.0664" lon="-1.17346">
899<time>2005-05-07T15:44:24Z</time>
900</trkpt>
901<trkpt lat="51.0667" lon="-1.17354">
902<time>2005-05-07T15:44:32Z</time>
903</trkpt>
904<trkpt lat="51.0675" lon="-1.17369">
905<time>2005-05-07T15:44:41Z</time>
906</trkpt>
907<trkpt lat="51.0679" lon="-1.17361">
908<time>2005-05-07T15:44:45Z</time>
909</trkpt>
910<trkpt lat="51.0698" lon="-1.17298">
911<time>2005-05-07T15:45:03Z</time>
912</trkpt>
913<trkpt lat="51.0783" lon="-1.17187">
914<time>2005-05-07T15:46:15Z</time>
915</trkpt>
916<trkpt lat="51.0788" lon="-1.17172">
917<time>2005-05-07T15:46:18Z</time>
918</trkpt>
919<trkpt lat="51.0817" lon="-1.17058">
920<time>2005-05-07T15:46:39Z</time>
921</trkpt>
922<trkpt lat="51.0818" lon="-1.17045">
923<time>2005-05-07T15:46:41Z</time>
924</trkpt>
925<trkpt lat="51.0826" lon="-1.16962">
926<time>2005-05-07T15:46:54Z</time>
927</trkpt>
928<trkpt lat="51.0837" lon="-1.16794">
929<time>2005-05-07T15:47:08Z</time>
930</trkpt>
931<trkpt lat="51.0844" lon="-1.16708">
932<time>2005-05-07T15:47:14Z</time>
933</trkpt>
934<trkpt lat="51.0854" lon="-1.1659">
935<time>2005-05-07T15:47:22Z</time>
936</trkpt>
937<trkpt lat="51.0866" lon="-1.1644">
938<time>2005-05-07T15:47:34Z</time>
939</trkpt>
940<trkpt lat="51.0881" lon="-1.16241">
941<time>2005-05-07T15:47:50Z</time>
942</trkpt>
943<trkpt lat="51.0893" lon="-1.16092">
944<time>2005-05-07T15:48:02Z</time>
945</trkpt>
946<trkpt lat="51.0894" lon="-1.16412">
947<time>2005-05-07T15:48:11Z</time>
948</trkpt>
949<trkpt lat="51.0894" lon="-1.16399">
950<time>2005-05-07T15:48:13Z</time>
951</trkpt>
952<trkpt lat="51.0898" lon="-1.16451">
953<time>2005-05-07T15:48:23Z</time>
954</trkpt>
955<trkpt lat="51.0897" lon="-1.1644">
956<time>2005-05-07T15:48:30Z</time>
957</trkpt>
958<trkpt lat="51.0898" lon="-1.16513">
959<time>2005-05-07T15:48:41Z</time>
960</trkpt>
961<trkpt lat="51.0892" lon="-1.16852">
962<time>2005-05-07T15:49:01Z</time>
963</trkpt>
964<trkpt lat="51.0892" lon="-1.16869">
965<time>2005-05-07T15:49:02Z</time>
966</trkpt>
967<trkpt lat="51.0882" lon="-1.17275">
968<time>2005-05-07T15:49:17Z</time>
969</trkpt>
970<trkpt lat="51.0878" lon="-1.17429">
971<time>2005-05-07T15:49:23Z</time>
972</trkpt>
973<trkpt lat="51.0867" lon="-1.18133">
974<time>2005-05-07T15:49:48Z</time>
975</trkpt>
976<trkpt lat="51.085" lon="-1.18418">
977<time>2005-05-07T15:50:03Z</time>
978</trkpt>
979<trkpt lat="51.0833" lon="-1.1864">
980<time>2005-05-07T15:50:16Z</time>
981</trkpt>
982<trkpt lat="51.0828" lon="-1.18697">
983<time>2005-05-07T15:50:20Z</time>
984</trkpt>
985<trkpt lat="51.0823" lon="-1.18635">
986<time>2005-05-07T15:50:25Z</time>
987</trkpt>
988<trkpt lat="51.0816" lon="-1.18612">
989<time>2005-05-07T15:50:32Z</time>
990</trkpt>
991<trkpt lat="51.0816" lon="-1.18631">
992<time>2005-05-07T15:50:35Z</time>
993</trkpt>
994<trkpt lat="51.0815" lon="-1.18609">
995<time>2005-05-07T15:50:39Z</time>
996</trkpt>
997<trkpt lat="51.081" lon="-1.18708">
998<time>2005-05-07T15:50:50Z</time>
999</trkpt>
1000<trkpt lat="51.08" lon="-1.18878">
1001<time>2005-05-07T15:51:04Z</time>
1002</trkpt>
1003<trkpt lat="51.0767" lon="-1.19406">
1004<time>2005-05-07T15:51:43Z</time>
1005</trkpt>
1006<trkpt lat="51.075" lon="-1.1983">
1007<time>2005-05-07T15:51:57Z</time>
1008</trkpt>
1009<trkpt lat="51.0728" lon="-1.2018">
1010<time>2005-05-07T15:52:12Z</time>
1011</trkpt>
1012<trkpt lat="51.071" lon="-1.20483">
1013<time>2005-05-07T15:52:24Z</time>
1014</trkpt>
1015<trkpt lat="51.0707" lon="-1.20536">
1016<time>2005-05-07T15:52:26Z</time>
1017</trkpt>
1018<trkpt lat="51.0697" lon="-1.20807">
1019<time>2005-05-07T15:52:35Z</time>
1020</trkpt>
1021<trkpt lat="51.0683" lon="-1.21199">
1022<time>2005-05-07T15:52:49Z</time>
1023</trkpt>
1024<trkpt lat="51.0681" lon="-1.21227">
1025<time>2005-05-07T15:52:50Z</time>
1026</trkpt>
1027<trkpt lat="51.0666" lon="-1.21699">
1028<time>2005-05-07T15:53:08Z</time>
1029</trkpt>
1030<trkpt lat="51.065" lon="-1.22184">
1031<time>2005-05-07T15:53:26Z</time>
1032</trkpt>
1033<trkpt lat="51.0644" lon="-1.22328">
1034<time>2005-05-07T15:53:32Z</time>
1035</trkpt>
1036<trkpt lat="51.0629" lon="-1.22538">
1037<time>2005-05-07T15:53:44Z</time>
1038</trkpt>
1039<trkpt lat="51.0625" lon="-1.22586">
1040<time>2005-05-07T15:53:47Z</time>
1041</trkpt>
1042<trkpt lat="51.062" lon="-1.2268">
1043<time>2005-05-07T15:53:52Z</time>
1044</trkpt>
1045<trkpt lat="51.0614" lon="-1.22922">
1046<time>2005-05-07T15:54:03Z</time>
1047</trkpt>
1048<trkpt lat="51.0612" lon="-1.23062">
1049<time>2005-05-07T15:54:09Z</time>
1050</trkpt>
1051<trkpt lat="51.0612" lon="-1.23231">
1052<time>2005-05-07T15:54:15Z</time>
1053</trkpt>
1054<trkpt lat="51.0613" lon="-1.23489">
1055<time>2005-05-07T15:54:23Z</time>
1056</trkpt>
1057<trkpt lat="51.0613" lon="-1.23976">
1058<time>2005-05-07T15:54:37Z</time>
1059</trkpt>
1060<trkpt lat="51.0614" lon="-1.24652">
1061<time>2005-05-07T15:54:57Z</time>
1062</trkpt>
1063<trkpt lat="51.0615" lon="-1.25053">
1064<time>2005-05-07T15:55:10Z</time>
1065</trkpt>
1066<trkpt lat="51.0616" lon="-1.2554">
1067<time>2005-05-07T15:55:28Z</time>
1068</trkpt>
1069<trkpt lat="51.0615" lon="-1.25841">
1070<time>2005-05-07T15:55:39Z</time>
1071</trkpt>
1072<trkpt lat="51.0613" lon="-1.2592">
1073<time>2005-05-07T15:55:43Z</time>
1074</trkpt>
1075<trkpt lat="51.0612" lon="-1.25944">
1076<time>2005-05-07T15:55:45Z</time>
1077</trkpt>
1078<trkpt lat="51.0611" lon="-1.25963">
1079<time>2005-05-07T15:55:47Z</time>
1080</trkpt>
1081<trkpt lat="51.061" lon="-1.26002">
1082<time>2005-05-07T15:55:51Z</time>
1083</trkpt>
1084<trkpt lat="51.0611" lon="-1.26057">
1085<time>2005-05-07T15:55:56Z</time>
1086</trkpt>
1087<trkpt lat="51.0614" lon="-1.26081">
1088<time>2005-05-07T15:55:59Z</time>
1089</trkpt>
1090<trkpt lat="51.0617" lon="-1.26141">
1091<time>2005-05-07T15:56:04Z</time>
1092</trkpt>
1093<trkpt lat="51.0618" lon="-1.26178">
1094<time>2005-05-07T15:56:06Z</time>
1095</trkpt>
1096<trkpt lat="51.0619" lon="-1.26399">
1097<time>2005-05-07T15:56:16Z</time>
1098</trkpt>
1099<trkpt lat="51.062" lon="-1.26974">
1100<time>2005-05-07T15:56:41Z</time>
1101</trkpt>
1102<trkpt lat="51.062" lon="-1.27351">
1103<time>2005-05-07T15:56:56Z</time>
1104</trkpt>
1105<trkpt lat="51.062" lon="-1.2765">
1106<time>2005-05-07T15:57:09Z</time>
1107</trkpt>
1108<trkpt lat="51.062" lon="-1.27931">
1109<time>2005-05-07T15:57:22Z</time>
1110</trkpt>
1111<trkpt lat="51.062" lon="-1.28371">
1112<time>2005-05-07T15:57:40Z</time>
1113</trkpt>
1114<trkpt lat="51.0621" lon="-1.29122">
1115<time>2005-05-07T15:58:07Z</time>
1116</trkpt>
1117<trkpt lat="51.0621" lon="-1.29426">
1118<time>2005-05-07T15:58:19Z</time>
1119</trkpt>
1120<trkpt lat="51.0621" lon="-1.29712">
1121<time>2005-05-07T15:58:35Z</time>
1122</trkpt>
1123<trkpt lat="51.0622" lon="-1.29881">
1124<time>2005-05-07T15:58:47Z</time>
1125</trkpt>
1126<trkpt lat="51.0622" lon="-1.2987">
1127<time>2005-05-07T15:58:59Z</time>
1128</trkpt>
1129<trkpt lat="51.0623" lon="-1.30021">
1130<time>2005-05-07T15:59:09Z</time>
1131</trkpt>
1132<trkpt lat="51.0625" lon="-1.30396">
1133<time>2005-05-07T15:59:25Z</time>
1134</trkpt>
1135<trkpt lat="51.0625" lon="-1.30418">
1136<time>2005-05-07T15:59:26Z</time>
1137</trkpt>
1138<trkpt lat="51.0634" lon="-1.30727">
1139<time>2005-05-07T15:59:44Z</time>
1140</trkpt>
1141<trkpt lat="51.0629" lon="-1.30776">
1142<time>2005-05-07T15:59:50Z</time>
1143</trkpt>
1144<trkpt lat="51.0626" lon="-1.30778">
1145<time>2005-05-07T15:59:52Z</time>
1146</trkpt>
1147<trkpt lat="51.0609" lon="-1.30679">
1148<time>2005-05-07T15:59:57Z</time>
1149</trkpt>
1150<trkpt lat="51.0608" lon="-1.30772">
1151<time>2005-05-07T16:00:09Z</time>
1152</trkpt>
1153<trkpt lat="51.0607" lon="-1.30941">
1154<time>2005-05-07T16:00:33Z</time>
1155</trkpt>
1156<trkpt lat="51.061" lon="-1.30915">
1157<time>2005-05-07T16:00:37Z</time>
1158</trkpt>
1159<trkpt lat="51.0627" lon="-1.30827">
1160<time>2005-05-07T16:00:46Z</time>
1161</trkpt>
1162<trkpt lat="51.0638" lon="-1.30819">
1163<time>2005-05-07T16:00:57Z</time>
1164</trkpt>
1165<trkpt lat="51.0631" lon="-1.30995">
1166<time>2005-05-07T16:01:07Z</time>
1167</trkpt>
1168<trkpt lat="51.0631" lon="-1.3101">
1169<time>2005-05-07T16:01:09Z</time>
1170</trkpt>
1171<trkpt lat="51.0628" lon="-1.31016">
1172<time>2005-05-07T16:01:13Z</time>
1173</trkpt>
1174<trkpt lat="51.0624" lon="-1.3098">
1175<time>2005-05-07T16:01:27Z</time>
1176</trkpt>
1177<trkpt lat="51.0623" lon="-1.30969">
1178<time>2005-05-07T16:01:35Z</time>
1179</trkpt>
1180<trkpt lat="51.0619" lon="-1.30997">
1181<time>2005-05-07T16:02:05Z</time>
1182</trkpt>
1183<trkpt lat="51.0618" lon="-1.31014">
1184<time>2005-05-07T16:02:29Z</time>
1185</trkpt>
1186<trkpt lat="51.062" lon="-1.30997">
1187<time>2005-05-07T16:03:38Z</time>
1188</trkpt>
1189<trkpt lat="51.0619" lon="-1.31003">
1190<time>2005-05-07T16:03:53Z</time>
1191</trkpt>
1192<trkpt lat="51.0619" lon="-1.31008">
1193<time>2005-05-07T16:04:12Z</time>
1194</trkpt>
1195<trkpt lat="51.0619" lon="-1.31006">
1196<time>2005-05-07T16:04:13Z</time>
1197</trkpt>
1198<trkpt lat="51.062" lon="-1.30967">
1199<time>2005-05-07T16:04:57Z</time>
1200</trkpt>
1201<trkpt lat="51.0621" lon="-1.30943">
1202<time>2005-05-07T16:05:54Z</time>
1203</trkpt>
1204<trkpt lat="51.062" lon="-1.31001">
1205<time>2005-05-07T16:06:49Z</time>
1206</trkpt>
1207<trkpt lat="51.062" lon="-1.30963">
1208<time>2005-05-07T16:07:03Z</time>
1209</trkpt>
1210<trkpt lat="51.0619" lon="-1.31016">
1211<time>2005-05-07T16:07:18Z</time>
1212</trkpt>
1213<trkpt lat="51.0619" lon="-1.31018">
1214<time>2005-05-07T16:07:19Z</time>
1215</trkpt>
1216<trkpt lat="51.0619" lon="-1.31031">
1217<time>2005-05-07T16:07:37Z</time>
1218</trkpt>
1219<trkpt lat="51.0619" lon="-1.31033">
1220<time>2005-05-07T16:08:42Z</time>
1221</trkpt>
1222<trkpt lat="51.0616" lon="-1.3104">
1223<time>2005-05-07T16:09:02Z</time>
1224</trkpt>
1225<trkpt lat="51.0616" lon="-1.31055">
1226<time>2005-05-07T16:09:06Z</time>
1227</trkpt>
1228<trkpt lat="51.062" lon="-1.31201">
1229<time>2005-05-07T16:09:28Z</time>
1230</trkpt>
1231<trkpt lat="51.0622" lon="-1.31291">
1232<time>2005-05-07T16:09:43Z</time>
1233</trkpt>
1234<trkpt lat="51.0626" lon="-1.31197">
1235<time>2005-05-07T16:09:51Z</time>
1236</trkpt>
1237<trkpt lat="51.0626" lon="-1.31237">
1238<time>2005-05-07T16:09:55Z</time>
1239</trkpt>
1240<trkpt lat="51.0629" lon="-1.3136">
1241<time>2005-05-07T16:10:16Z</time>
1242</trkpt>
1243<trkpt lat="51.063" lon="-1.31405">
1244<time>2005-05-07T16:10:30Z</time>
1245</trkpt>
1246<trkpt lat="51.063" lon="-1.31411">
1247<time>2005-05-07T16:10:43Z</time>
1248</trkpt>
1249<trkpt lat="51.0631" lon="-1.31443">
1250<time>2005-05-07T16:10:53Z</time>
1251</trkpt>
1252<trkpt lat="51.0632" lon="-1.31529">
1253<time>2005-05-07T16:11:11Z</time>
1254</trkpt>
1255<trkpt lat="51.0633" lon="-1.31559">
1256<time>2005-05-07T16:11:25Z</time>
1257</trkpt>
1258<trkpt lat="51.0633" lon="-1.31572">
1259<time>2005-05-07T16:11:44Z</time>
1260</trkpt>
1261<trkpt lat="51.0633" lon="-1.31598">
1262<time>2005-05-07T16:12:11Z</time>
1263</trkpt>
1264<trkpt lat="51.0634" lon="-1.31626">
1265<time>2005-05-07T16:12:15Z</time>
1266</trkpt>
1267<trkpt lat="51.0631" lon="-1.31643">
1268<time>2005-05-07T16:12:24Z</time>
1269</trkpt>
1270<trkpt lat="51.063" lon="-1.31651">
1271<time>2005-05-07T16:12:37Z</time>
1272</trkpt>
1273<trkpt lat="51.0628" lon="-1.31686">
1274<time>2005-05-07T16:13:57Z</time>
1275</trkpt>
1276<trkpt lat="51.0604" lon="-1.31836">
1277<time>2005-05-07T16:14:14Z</time>
1278</trkpt>
1279<trkpt lat="51.0589" lon="-1.31883">
1280<time>2005-05-07T16:14:30Z</time>
1281</trkpt>
1282<trkpt lat="51.0566" lon="-1.31986">
1283<time>2005-05-07T16:14:51Z</time>
1284</trkpt>
1285<trkpt lat="51.0542" lon="-1.32083">
1286<time>2005-05-07T16:15:10Z</time>
1287</trkpt>
1288<trkpt lat="51.0507" lon="-1.32239">
1289<time>2005-05-07T16:15:41Z</time>
1290</trkpt>
1291<trkpt lat="51.0491" lon="-1.32308">
1292<time>2005-05-07T16:15:57Z</time>
1293</trkpt>
1294<trkpt lat="51.0477" lon="-1.32362">
1295<time>2005-05-07T16:16:12Z</time>
1296</trkpt>
1297<trkpt lat="51.0447" lon="-1.32482">
1298<time>2005-05-07T16:16:40Z</time>
1299</trkpt>
1300<trkpt lat="51.0394" lon="-1.32705">
1301<time>2005-05-07T16:17:24Z</time>
1302</trkpt>
1303<trkpt lat="51.0389" lon="-1.32726">
1304<time>2005-05-07T16:17:28Z</time>
1305</trkpt>
1306<trkpt lat="51.0382" lon="-1.32744">
1307<time>2005-05-07T16:17:36Z</time>
1308</trkpt>
1309<trkpt lat="51.0382" lon="-1.3275">
1310<time>2005-05-07T16:17:37Z</time>
1311</trkpt>
1312<trkpt lat="51.0381" lon="-1.32769">
1313<time>2005-05-07T16:17:39Z</time>
1314</trkpt>
1315<trkpt lat="51.038" lon="-1.32812">
1316<time>2005-05-07T16:17:43Z</time>
1317</trkpt>
1318<trkpt lat="51.0369" lon="-1.32817">
1319<time>2005-05-07T16:17:54Z</time>
1320</trkpt>
1321<trkpt lat="51.0353" lon="-1.32864">
1322<time>2005-05-07T16:18:09Z</time>
1323</trkpt>
1324<trkpt lat="51.032" lon="-1.32971">
1325<time>2005-05-07T16:18:38Z</time>
1326</trkpt>
1327<trkpt lat="51.0276" lon="-1.33186">
1328<time>2005-05-07T16:19:02Z</time>
1329</trkpt>
1330<trkpt lat="51.0257" lon="-1.33199">
1331<time>2005-05-07T16:19:17Z</time>
1332</trkpt>
1333<trkpt lat="51.0245" lon="-1.33177">
1334<time>2005-05-07T16:19:28Z</time>
1335</trkpt>
1336<trkpt lat="51.0243" lon="-1.33177">
1337<time>2005-05-07T16:19:30Z</time>
1338</trkpt>
1339<trkpt lat="51.0233" lon="-1.33259">
1340<time>2005-05-07T16:19:39Z</time>
1341</trkpt>
1342<trkpt lat="51.0219" lon="-1.33366">
1343<time>2005-05-07T16:19:52Z</time>
1344</trkpt>
1345<trkpt lat="51.0208" lon="-1.33456">
1346<time>2005-05-07T16:20:03Z</time>
1347</trkpt>
1348<trkpt lat="51.0198" lon="-1.33589">
1349<time>2005-05-07T16:20:14Z</time>
1350</trkpt>
1351<trkpt lat="51.0187" lon="-1.33668">
1352<time>2005-05-07T16:20:23Z</time>
1353</trkpt>
1354<trkpt lat="51.0163" lon="-1.33827">
1355<time>2005-05-07T16:20:42Z</time>
1356</trkpt>
1357<trkpt lat="51.0123" lon="-1.34089">
1358<time>2005-05-07T16:21:13Z</time>
1359</trkpt>
1360<trkpt lat="51.0101" lon="-1.34233">
1361<time>2005-05-07T16:21:30Z</time>
1362</trkpt>
1363<trkpt lat="51.0095" lon="-1.34252">
1364<time>2005-05-07T16:21:36Z</time>
1365</trkpt>
1366<trkpt lat="51.0088" lon="-1.34282">
1367<time>2005-05-07T16:21:47Z</time>
1368</trkpt>
1369<trkpt lat="51.0063" lon="-1.34419">
1370<time>2005-05-07T16:22:23Z</time>
1371</trkpt>
1372<trkpt lat="51.004" lon="-1.34829">
1373<time>2005-05-07T16:23:01Z</time>
1374</trkpt>
1375<trkpt lat="51.004" lon="-1.34829">
1376<time>2005-05-07T16:23:11Z</time>
1377</trkpt>
1378<trkpt lat="51.0036" lon="-1.34883">
1379<time>2005-05-07T16:23:35Z</time>
1380</trkpt>
1381<trkpt lat="51.0033" lon="-1.34928">
1382<time>2005-05-07T16:23:40Z</time>
1383</trkpt>
1384<trkpt lat="51.0032" lon="-1.34941">
1385<time>2005-05-07T16:23:42Z</time>
1386</trkpt>
1387<trkpt lat="51.0021" lon="-1.35044">
1388<time>2005-05-07T16:24:05Z</time>
1389</trkpt>
1390<trkpt lat="50.9994" lon="-1.35439">
1391<time>2005-05-07T16:24:46Z</time>
1392</trkpt>
1393<trkpt lat="50.9983" lon="-1.3567">
1394<time>2005-05-07T16:25:02Z</time>
1395</trkpt>
1396<trkpt lat="50.9975" lon="-1.35658">
1397<time>2005-05-07T16:25:10Z</time>
1398</trkpt>
1399<trkpt lat="50.9974" lon="-1.3566">
1400<time>2005-05-07T16:25:12Z</time>
1401</trkpt>
1402<trkpt lat="50.9971" lon="-1.35679">
1403<time>2005-05-07T16:25:22Z</time>
1404</trkpt>
1405<trkpt lat="50.9971" lon="-1.35696">
1406<time>2005-05-07T16:25:25Z</time>
1407</trkpt>
1408<trkpt lat="50.9977" lon="-1.35831">
1409<time>2005-05-07T16:25:39Z</time>
1410</trkpt>
1411<trkpt lat="50.9977" lon="-1.35842">
1412<time>2005-05-07T16:25:40Z</time>
1413</trkpt>
1414<trkpt lat="50.9968" lon="-1.36082">
1415<time>2005-05-07T16:25:58Z</time>
1416</trkpt>
1417<trkpt lat="50.9955" lon="-1.36325">
1418<time>2005-05-07T16:26:14Z</time>
1419</trkpt>
1420<trkpt lat="50.9931" lon="-1.36677">
1421<time>2005-05-07T16:26:40Z</time>
1422</trkpt>
1423<trkpt lat="50.9923" lon="-1.36771">
1424<time>2005-05-07T16:26:50Z</time>
1425</trkpt>
1426<trkpt lat="50.9882" lon="-1.37359">
1427<time>2005-05-07T16:27:59Z</time>
1428</trkpt>
1429<trkpt lat="50.9881" lon="-1.37381">
1430<time>2005-05-07T16:28:01Z</time>
1431</trkpt>
1432<trkpt lat="50.9875" lon="-1.37518">
1433<time>2005-05-07T16:28:16Z</time>
1434</trkpt>
1435<trkpt lat="50.9867" lon="-1.37739">
1436<time>2005-05-07T16:28:33Z</time>
1437</trkpt>
1438<trkpt lat="50.9855" lon="-1.38042">
1439<time>2005-05-07T16:28:53Z</time>
1440</trkpt>
1441<trkpt lat="50.9839" lon="-1.38288">
1442<time>2005-05-07T16:29:09Z</time>
1443</trkpt>
1444<trkpt lat="50.9825" lon="-1.38404">
1445<time>2005-05-07T16:29:46Z</time>
1446</trkpt>
1447<trkpt lat="50.9828" lon="-1.38301">
1448<time>2005-05-07T16:29:53Z</time>
1449</trkpt>
1450<trkpt lat="50.9826" lon="-1.38331">
1451<time>2005-05-07T16:30:01Z</time>
1452</trkpt>
1453<trkpt lat="50.9819" lon="-1.38383">
1454<time>2005-05-07T16:30:13Z</time>
1455</trkpt>
1456<trkpt lat="50.9811" lon="-1.38441">
1457<time>2005-05-07T16:30:25Z</time>
1458</trkpt>
1459<trkpt lat="50.9811" lon="-1.38432">
1460<time>2005-05-07T16:30:36Z</time>
1461</trkpt>
1462<trkpt lat="50.9807" lon="-1.38458">
1463<time>2005-05-07T16:30:47Z</time>
1464</trkpt>
1465<trkpt lat="50.9796" lon="-1.38522">
1466<time>2005-05-07T16:31:01Z</time>
1467</trkpt>
1468<trkpt lat="50.9792" lon="-1.38548">
1469<time>2005-05-07T16:31:10Z</time>
1470</trkpt>
1471<trkpt lat="50.979" lon="-1.38563">
1472<time>2005-05-07T16:31:37Z</time>
1473</trkpt>
1474<trkpt lat="50.9781" lon="-1.38617">
1475<time>2005-05-07T16:31:46Z</time>
1476</trkpt>
1477<trkpt lat="50.976" lon="-1.38754">
1478<time>2005-05-07T16:32:05Z</time>
1479</trkpt>
1480<trkpt lat="50.9744" lon="-1.38823">
1481<time>2005-05-07T16:32:21Z</time>
1482</trkpt>
1483<trkpt lat="50.9743" lon="-1.38829">
1484<time>2005-05-07T16:32:23Z</time>
1485</trkpt>
1486<trkpt lat="50.9741" lon="-1.38838">
1487<time>2005-05-07T16:32:29Z</time>
1488</trkpt>
1489<trkpt lat="50.9741" lon="-1.38838">
1490<time>2005-05-07T16:32:42Z</time>
1491</trkpt>
1492<trkpt lat="50.974" lon="-1.38853">
1493<time>2005-05-07T16:32:50Z</time>
1494</trkpt>
1495<trkpt lat="50.9726" lon="-1.38928">
1496<time>2005-05-07T16:33:08Z</time>
1497</trkpt>
1498<trkpt lat="50.9701" lon="-1.38981">
1499<time>2005-05-07T16:33:22Z</time>
1500</trkpt>
1501<trkpt lat="50.9698" lon="-1.38971">
1502<time>2005-05-07T16:33:27Z</time>
1503</trkpt>
1504<trkpt lat="50.9692" lon="-1.38913">
1505<time>2005-05-07T16:33:36Z</time>
1506</trkpt>
1507<trkpt lat="50.969" lon="-1.39052">
1508<time>2005-05-07T16:33:44Z</time>
1509</trkpt>
1510<trkpt lat="50.9687" lon="-1.39078">
1511<time>2005-05-07T16:33:47Z</time>
1512</trkpt>
1513<trkpt lat="50.9684" lon="-1.39119">
1514<time>2005-05-07T16:33:52Z</time>
1515</trkpt>
1516<trkpt lat="50.968" lon="-1.39134">
1517<time>2005-05-07T16:33:57Z</time>
1518</trkpt>
1519<trkpt lat="50.9677" lon="-1.39136">
1520<time>2005-05-07T16:34:06Z</time>
1521</trkpt>
1522<trkpt lat="50.9674" lon="-1.39142">
1523<time>2005-05-07T16:34:20Z</time>
1524</trkpt>
1525<trkpt lat="50.9659" lon="-1.39202">
1526<time>2005-05-07T16:34:37Z</time>
1527</trkpt>
1528<trkpt lat="50.9632" lon="-1.39387">
1529<time>2005-05-07T16:34:59Z</time>
1530</trkpt>
1531<trkpt lat="50.9629" lon="-1.39436">
1532<time>2005-05-07T16:35:03Z</time>
1533</trkpt>
1534<trkpt lat="50.9612" lon="-1.39657">
1535<time>2005-05-07T16:35:18Z</time>
1536</trkpt>
1537<trkpt lat="50.9593" lon="-1.39846">
1538<time>2005-05-07T16:35:35Z</time>
1539</trkpt>
1540<trkpt lat="50.9552" lon="-1.40282">
1541<time>2005-05-07T16:36:13Z</time>
1542</trkpt>
1543<trkpt lat="50.955" lon="-1.40299">
1544<time>2005-05-07T16:36:17Z</time>
1545</trkpt>
1546<trkpt lat="50.9546" lon="-1.40286">
1547<time>2005-05-07T16:36:23Z</time>
1548</trkpt>
1549<trkpt lat="50.9544" lon="-1.40273">
1550<time>2005-05-07T16:36:26Z</time>
1551</trkpt>
1552<trkpt lat="50.9542" lon="-1.40269">
1553<time>2005-05-07T16:36:29Z</time>
1554</trkpt>
1555<trkpt lat="50.9532" lon="-1.40368">
1556<time>2005-05-07T16:36:40Z</time>
1557</trkpt>
1558<trkpt lat="50.9525" lon="-1.40419">
1559<time>2005-05-07T16:36:49Z</time>
1560</trkpt>
1561<trkpt lat="50.9524" lon="-1.40419">
1562<time>2005-05-07T16:36:50Z</time>
1563</trkpt>
1564<trkpt lat="50.9522" lon="-1.40415">
1565<time>2005-05-07T16:36:54Z</time>
1566</trkpt>
1567<trkpt lat="50.9521" lon="-1.40406">
1568<time>2005-05-07T16:36:57Z</time>
1569</trkpt>
1570<trkpt lat="50.9519" lon="-1.40408">
1571<time>2005-05-07T16:37:01Z</time>
1572</trkpt>
1573<trkpt lat="50.9518" lon="-1.40419">
1574<time>2005-05-07T16:37:03Z</time>
1575</trkpt>
1576<trkpt lat="50.9516" lon="-1.40434">
1577<time>2005-05-07T16:37:05Z</time>
1578</trkpt>
1579<trkpt lat="50.9501" lon="-1.40481">
1580<time>2005-05-07T16:37:21Z</time>
1581</trkpt>
1582<trkpt lat="50.9466" lon="-1.40554">
1583<time>2005-05-07T16:37:52Z</time>
1584</trkpt>
1585<trkpt lat="50.9463" lon="-1.40563">
1586<time>2005-05-07T16:37:55Z</time>
1587</trkpt>
1588</trkseg>
1589</trk>
1590</gpx>
Note: See TracBrowser for help on using the repository browser.